sensor_id;sensor_type;location;lat;lon;timestamp;temperature;humidity
74420;DHT22;62855;50.718;-2.460;2024-02-28T00:02:06;32.18;4.00
74420;DHT22;62855;50.718;-2.460;2024-02-28T00:05:06;32.18;4.00
74420;DHT22;62855;50.718;-2.460;2024-02-28T00:08:06;32.18;4.00
74420;DHT22;62855;50.718;-2.460;2024-02-28T00:11:05;32.18;4.00
74420;DHT22;62855;50.718;-2.460;2024-02-28T00:14:06;32.18;4.00
74420;DHT22;62855;50.718;-2.460;2024-02-28T00:17:06;32.18;4.00
74420;DHT22;62855;50.718;-2.460;2024-02-28T00:20:06;32.18;4.00
74420;DHT22;62855;50.718;-2.460;2024-02-28T00:23:06;32.18;4.00
74420;DHT22;62855;50.718;-2.460;2024-02-28T00:26:06;32.18;4.00
74420;DHT22;62855;50.718;-2.460;2024-02-28T00:29:05;32.18;4.00
74420;DHT22;62855;50.718;-2.460;2024-02-28T00:32:06;32.18;4.00
74420;DHT22;62855;50.718;-2.460;2024-02-28T00:35:07;32.18;4.00
74420;DHT22;62855;50.718;-2.460;2024-02-28T00:38:05;32.18;4.00
74420;DHT22;62855;50.718;-2.460;2024-02-28T00:41:05;32.18;4.00
74420;DHT22;62855;50.718;-2.460;2024-02-28T00:44:06;32.18;4.00
74420;DHT22;62855;50.718;-2.460;2024-02-28T00:47:05;32.18;4.00
74420;DHT22;62855;50.718;-2.460;2024-02-28T00:50:07;32.18;5.00
74420;DHT22;62855;50.718;-2.460;2024-02-28T00:53:05;32.18;5.00
74420;DHT22;62855;50.718;-2.460;2024-02-28T00:56:07;32.18;5.00
74420;DHT22;62855;50.718;-2.460;2024-02-28T00:59:06;32.18;5.00
74420;DHT22;62855;50.718;-2.460;2024-02-28T01:02:05;32.18;5.00
74420;DHT22;62855;50.718;-2.460;2024-02-28T01:05:07;32.18;5.00
74420;DHT22;62855;50.718;-2.460;2024-02-28T01:08:06;32.18;5.00
74420;DHT22;62855;50.718;-2.460;2024-02-28T01:11:06;32.18;5.00
74420;DHT22;62855;50.718;-2.460;2024-02-28T01:14:05;32.18;5.00
74420;DHT22;62855;50.718;-2.460;2024-02-28T01:17:05;32.18;5.00
74420;DHT22;62855;50.718;-2.460;2024-02-28T01:20:07;32.18;5.00
74420;DHT22;62855;50.718;-2.460;2024-02-28T01:23:06;32.18;5.00
74420;DHT22;62855;50.718;-2.460;2024-02-28T01:26:06;32.18;5.00
74420;DHT22;62855;50.718;-2.460;2024-02-28T01:29:05;32.18;5.00
74420;DHT22;62855;50.718;-2.460;2024-02-28T01:32:06;32.18;5.00
74420;DHT22;62855;50.718;-2.460;2024-02-28T01:35:08;32.00;5.00
74420;DHT22;62855;50.718;-2.460;2024-02-28T01:38:05;32.00;5.00
74420;DHT22;62855;50.718;-2.460;2024-02-28T01:41:06;32.00;5.00
74420;DHT22;62855;50.718;-2.460;2024-02-28T01:44:06;32.00;5.00
74420;DHT22;62855;50.718;-2.460;2024-02-28T01:47:06;33.62;5.00
74420;DHT22;62855;50.718;-2.460;2024-02-28T01:50:06;33.62;5.00
74420;DHT22;62855;50.718;-2.460;2024-02-28T01:53:06;33.44;4.00
74420;DHT22;62855;50.718;-2.460;2024-02-28T01:56:06;33.26;4.00
74420;DHT22;62855;50.718;-2.460;2024-02-28T01:59:06;33.08;4.00
74420;DHT22;62855;50.718;-2.460;2024-02-28T02:02:06;32.90;4.00
74420;DHT22;62855;50.718;-2.460;2024-02-28T02:05:06;32.90;4.00
74420;DHT22;62855;50.718;-2.460;2024-02-28T02:08:06;32.72;4.00
74420;DHT22;62855;50.718;-2.460;2024-02-28T02:11:06;32.72;4.00
74420;DHT22;62855;50.718;-2.460;2024-02-28T02:14:06;32.54;4.00
74420;DHT22;62855;50.718;-2.460;2024-02-28T02:17:05;32.54;4.00
74420;DHT22;62855;50.718;-2.460;2024-02-28T02:20:09;32.36;4.00
74420;DHT22;62855;50.718;-2.460;2024-02-28T02:23:05;32.36;4.00
74420;DHT22;62855;50.718;-2.460;2024-02-28T02:26:05;32.18;4.00
74420;DHT22;62855;50.718;-2.460;2024-02-28T02:29:06;32.18;4.00
74420;DHT22;62855;50.718;-2.460;2024-02-28T02:32:07;32.18;4.00
74420;DHT22;62855;50.718;-2.460;2024-02-28T02:35:06;32.18;4.00
74420;DHT22;62855;50.718;-2.460;2024-02-28T02:38:05;32.18;4.00
74420;DHT22;62855;50.718;-2.460;2024-02-28T02:41:06;32.18;4.00
74420;DHT22;62855;50.718;-2.460;2024-02-28T02:44:06;32.36;4.00
74420;DHT22;62855;50.718;-2.460;2024-02-28T02:47:05;32.36;4.00
74420;DHT22;62855;50.718;-2.460;2024-02-28T02:50:06;32.36;4.00
74420;DHT22;62855;50.718;-2.460;2024-02-28T02:53:10;32.36;4.00
74420;DHT22;62855;50.718;-2.460;2024-02-28T02:56:06;32.36;4.00
74420;DHT22;62855;50.718;-2.460;2024-02-28T02:59:06;32.36;4.00
74420;DHT22;62855;50.718;-2.460;2024-02-28T03:02:06;32.18;4.00
74420;DHT22;62855;50.718;-2.460;2024-02-28T03:05:06;32.18;4.00
74420;DHT22;62855;50.718;-2.460;2024-02-28T03:08:06;32.18;4.00
74420;DHT22;62855;50.718;-2.460;2024-02-28T03:11:06;32.00;4.00
74420;DHT22;62855;50.718;-2.460;2024-02-28T03:14:05;32.00;4.00
74420;DHT22;62855;50.718;-2.460;2024-02-28T03:17:06;32.00;4.00
74420;DHT22;62855;50.718;-2.460;2024-02-28T03:20:08;32.00;4.00
74420;DHT22;62855;50.718;-2.460;2024-02-28T03:23:06;33.62;4.00
74420;DHT22;62855;50.718;-2.460;2024-02-28T03:26:06;33.62;4.00
74420;DHT22;62855;50.718;-2.460;2024-02-28T03:29:05;33.44;0.00
74420;DHT22;62855;50.718;-2.460;2024-02-28T03:32:06;33.26;0.00
74420;DHT22;62855;50.718;-2.460;2024-02-28T03:35:06;33.26;0.00
74420;DHT22;62855;50.718;-2.460;2024-02-28T03:38:05;33.08;0.00
74420;DHT22;62855;50.718;-2.460;2024-02-28T03:41:06;33.08;0.00
74420;DHT22;62855;50.718;-2.460;2024-02-28T03:47:05;33.08;0.00
74420;DHT22;62855;50.718;-2.460;2024-02-28T03:50:07;33.08;0.00
74420;DHT22;62855;50.718;-2.460;2024-02-28T03:53:05;33.08;0.00
74420;DHT22;62855;50.718;-2.460;2024-02-28T03:57:05;33.08;0.00
74420;DHT22;62855;50.718;-2.460;2024-02-28T04:00:07;33.08;0.00
74420;DHT22;62855;50.718;-2.460;2024-02-28T04:03:06;33.26;0.00
74420;DHT22;62855;50.718;-2.460;2024-02-28T04:06:06;33.26;0.00
74420;DHT22;62855;50.718;-2.460;2024-02-28T04:09:05;33.44;0.00
74420;DHT22;62855;50.718;-2.460;2024-02-28T04:12:07;33.44;0.00
74420;DHT22;62855;50.718;-2.460;2024-02-28T04:15:08;33.62;4.00
74420;DHT22;62855;50.718;-2.460;2024-02-28T04:18:05;33.62;4.00
74420;DHT22;62855;50.718;-2.460;2024-02-28T04:21:05;33.62;4.00
74420;DHT22;62855;50.718;-2.460;2024-02-28T04:24:06;33.62;4.00
74420;DHT22;62855;50.718;-2.460;2024-02-28T04:27:07;33.44;0.00
74420;DHT22;62855;50.718;-2.460;2024-02-28T04:30:07;33.44;0.00
74420;DHT22;62855;50.718;-2.460;2024-02-28T04:33:05;33.44;0.00
74420;DHT22;62855;50.718;-2.460;2024-02-28T04:36:06;33.44;0.00
74420;DHT22;62855;50.718;-2.460;2024-02-28T04:39:06;33.44;0.00
74420;DHT22;62855;50.718;-2.460;2024-02-28T04:42:06;33.26;0.00
74420;DHT22;62855;50.718;-2.460;2024-02-28T04:45:06;33.26;0.00
74420;DHT22;62855;50.718;-2.460;2024-02-28T04:48:06;33.26;0.00
74420;DHT22;62855;50.718;-2.460;2024-02-28T04:51:05;33.26;0.00
74420;DHT22;62855;50.718;-2.460;2024-02-28T04:54:06;33.26;0.00
74420;DHT22;62855;50.718;-2.460;2024-02-28T04:57:06;33.26;0.00
74420;DHT22;62855;50.718;-2.460;2024-02-28T05:00:06;33.26;0.00
74420;DHT22;62855;50.718;-2.460;2024-02-28T05:03:06;33.26;0.00
74420;DHT22;62855;50.718;-2.460;2024-02-28T05:06:05;33.26;0.00
74420;DHT22;62855;50.718;-2.460;2024-02-28T05:09:06;33.26;0.00
74420;DHT22;62855;50.718;-2.460;2024-02-28T05:12:06;33.26;0.00
74420;DHT22;62855;50.718;-2.460;2024-02-28T05:15:06;33.26;0.00
74420;DHT22;62855;50.718;-2.460;2024-02-28T05:18:06;33.26;0.00
74420;DHT22;62855;50.718;-2.460;2024-02-28T05:21:06;33.26;0.00
74420;DHT22;62855;50.718;-2.460;2024-02-28T05:24:06;33.26;0.00
74420;DHT22;62855;50.718;-2.460;2024-02-28T05:27:05;33.26;0.00
74420;DHT22;62855;50.718;-2.460;2024-02-28T05:30:07;33.26;0.00
74420;DHT22;62855;50.718;-2.460;2024-02-28T05:33:06;33.26;0.00
74420;DHT22;62855;50.718;-2.460;2024-02-28T05:36:06;33.26;0.00
74420;DHT22;62855;50.718;-2.460;2024-02-28T05:39:05;33.26;0.00
74420;DHT22;62855;50.718;-2.460;2024-02-28T05:42:06;33.08;0.00
74420;DHT22;62855;50.718;-2.460;2024-02-28T05:45:06;33.08;0.00
74420;DHT22;62855;50.718;-2.460;2024-02-28T05:48:06;33.08;0.00
74420;DHT22;62855;50.718;-2.460;2024-02-28T05:51:06;33.08;0.00
74420;DHT22;62855;50.718;-2.460;2024-02-28T05:54:06;33.08;0.00
74420;DHT22;62855;50.718;-2.460;2024-02-28T05:57:05;33.08;0.00
74420;DHT22;62855;50.718;-2.460;2024-02-28T06:00:07;33.08;0.00
74420;DHT22;62855;50.718;-2.460;2024-02-28T06:03:06;33.08;0.00
74420;DHT22;62855;50.718;-2.460;2024-02-28T06:06:06;33.08;0.00
74420;DHT22;62855;50.718;-2.460;2024-02-28T06:09:05;33.08;0.00
74420;DHT22;62855;50.718;-2.460;2024-02-28T06:12:06;33.08;0.00
74420;DHT22;62855;50.718;-2.460;2024-02-28T06:15:08;33.08;0.00
74420;DHT22;62855;50.718;-2.460;2024-02-28T06:18:07;33.08;0.00
74420;DHT22;62855;50.718;-2.460;2024-02-28T06:21:06;33.08;0.00
74420;DHT22;62855;50.718;-2.460;2024-02-28T06:24:05;33.08;0.00
74420;DHT22;62855;50.718;-2.460;2024-02-28T06:27:05;33.08;0.00
74420;DHT22;62855;50.718;-2.460;2024-02-28T06:30:07;33.08;0.00
74420;DHT22;62855;50.718;-2.460;2024-02-28T06:34:05;33.08;0.00
74420;DHT22;62855;50.718;-2.460;2024-02-28T06:37:06;33.08;0.00
74420;DHT22;62855;50.718;-2.460;2024-02-28T06:40:08;33.08;0.00
74420;DHT22;62855;50.718;-2.460;2024-02-28T06:43:05;33.08;0.00
74420;DHT22;62855;50.718;-2.460;2024-02-28T06:46:05;32.90;0.00
74420;DHT22;62855;50.718;-2.460;2024-02-28T06:49:06;32.90;0.00
74420;DHT22;62855;50.718;-2.460;2024-02-28T06:52:06;32.90;0.00
74420;DHT22;62855;50.718;-2.460;2024-02-28T06:55:06;32.90;0.00
74420;DHT22;62855;50.718;-2.460;2024-02-28T06:58:05;32.90;0.00
74420;DHT22;62855;50.718;-2.460;2024-02-28T07:01:06;32.90;0.00
74420;DHT22;62855;50.718;-2.460;2024-02-28T07:04:06;32.90;0.00
74420;DHT22;62855;50.718;-2.460;2024-02-28T07:07:06;32.90;0.00
74420;DHT22;62855;50.718;-2.460;2024-02-28T07:10:06;32.90;0.00
74420;DHT22;62855;50.718;-2.460;2024-02-28T07:13:06;32.90;0.00
74420;DHT22;62855;50.718;-2.460;2024-02-28T07:16:06;32.90;0.00
74420;DHT22;62855;50.718;-2.460;2024-02-28T07:19:06;33.08;0.00
74420;DHT22;62855;50.718;-2.460;2024-02-28T07:22:06;33.08;0.00
74420;DHT22;62855;50.718;-2.460;2024-02-28T07:25:06;33.44;1.00
74420;DHT22;62855;50.718;-2.460;2024-02-28T07:28:06;33.62;6.00
74420;DHT22;62855;50.718;-2.460;2024-02-28T07:31:05;33.62;6.00
74420;DHT22;62855;50.718;-2.460;2024-02-28T07:34:05;32.00;6.00
74420;DHT22;62855;50.718;-2.460;2024-02-28T07:37:06;32.00;6.00
74420;DHT22;62855;50.718;-2.460;2024-02-28T07:40:07;32.18;6.00
74420;DHT22;62855;50.718;-2.460;2024-02-28T07:43:05;32.18;6.00
74420;DHT22;62855;50.718;-2.460;2024-02-28T07:46:07;32.36;6.00
74420;DHT22;62855;50.718;-2.460;2024-02-28T07:49:05;32.36;6.00
74420;DHT22;62855;50.718;-2.460;2024-02-28T07:52:05;32.36;6.00
74420;DHT22;62855;50.718;-2.460;2024-02-28T07:55:07;32.54;6.00
74420;DHT22;62855;50.718;-2.460;2024-02-28T07:58:06;32.54;6.00
74420;DHT22;62855;50.718;-2.460;2024-02-28T08:01:05;32.54;6.00
74420;DHT22;62855;50.718;-2.460;2024-02-28T08:04:06;32.72;6.00
74420;DHT22;62855;50.718;-2.460;2024-02-28T08:07:06;32.72;6.00
74420;DHT22;62855;50.718;-2.460;2024-02-28T08:10:06;32.90;6.00
74420;DHT22;62855;50.718;-2.460;2024-02-28T08:13:44;32.90;6.00
74420;DHT22;62855;50.718;-2.460;2024-02-28T08:16:06;33.08;6.00
74420;DHT22;62855;50.718;-2.460;2024-02-28T08:19:06;33.08;7.00
74420;DHT22;62855;50.718;-2.460;2024-02-28T08:22:05;33.08;7.00
74420;DHT22;62855;50.718;-2.460;2024-02-28T08:25:07;33.08;7.00
74420;DHT22;62855;50.718;-2.460;2024-02-28T08:28:06;33.26;7.00
74420;DHT22;62855;50.718;-2.460;2024-02-28T08:31:05;33.26;7.00
74420;DHT22;62855;50.718;-2.460;2024-02-28T08:34:06;33.26;7.00
74420;DHT22;62855;50.718;-2.460;2024-02-28T08:37:08;33.44;7.00
74420;DHT22;62855;50.718;-2.460;2024-02-28T08:40:07;33.44;7.00
74420;DHT22;62855;50.718;-2.460;2024-02-28T08:43:06;33.62;7.00
74420;DHT22;62855;50.718;-2.460;2024-02-28T08:46:05;32.00;7.00
74420;DHT22;62855;50.718;-2.460;2024-02-28T08:49:07;32.00;7.00
74420;DHT22;62855;50.718;-2.460;2024-02-28T08:52:21;32.18;7.00
74420;DHT22;62855;50.718;-2.460;2024-02-28T08:55:06;32.18;7.00
74420;DHT22;62855;50.718;-2.460;2024-02-28T08:58:06;32.36;7.00
74420;DHT22;62855;50.718;-2.460;2024-02-28T09:01:06;32.36;7.00
74420;DHT22;62855;50.718;-2.460;2024-02-28T09:04:05;32.36;7.00
74420;DHT22;62855;50.718;-2.460;2024-02-28T09:07:06;32.54;8.00
74420;DHT22;62855;50.718;-2.460;2024-02-28T09:10:07;32.54;8.00
74420;DHT22;62855;50.718;-2.460;2024-02-28T09:13:06;32.72;8.00
74420;DHT22;62855;50.718;-2.460;2024-02-28T09:16:06;32.72;8.00
74420;DHT22;62855;50.718;-2.460;2024-02-28T09:19:07;32.72;8.00
74420;DHT22;62855;50.718;-2.460;2024-02-28T09:22:06;32.72;8.00
74420;DHT22;62855;50.718;-2.460;2024-02-28T09:25:06;32.72;8.00
74420;DHT22;62855;50.718;-2.460;2024-02-28T09:28:06;32.72;8.00
74420;DHT22;62855;50.718;-2.460;2024-02-28T09:31:08;32.72;8.00
74420;DHT22;62855;50.718;-2.460;2024-02-28T09:34:06;32.72;8.00
74420;DHT22;62855;50.718;-2.460;2024-02-28T09:37:06;32.72;8.00
74420;DHT22;62855;50.718;-2.460;2024-02-28T09:40:09;32.72;8.00
74420;DHT22;62855;50.718;-2.460;2024-02-28T09:43:15;32.72;8.00
74420;DHT22;62855;50.718;-2.460;2024-02-28T09:46:07;32.72;8.00
74420;DHT22;62855;50.718;-2.460;2024-02-28T09:49:07;32.72;8.00
74420;DHT22;62855;50.718;-2.460;2024-02-28T09:52:06;32.72;8.00
74420;DHT22;62855;50.718;-2.460;2024-02-28T09:55:06;32.72;8.00
74420;DHT22;62855;50.718;-2.460;2024-02-28T09:58:07;32.90;8.00
74420;DHT22;62855;50.718;-2.460;2024-02-28T10:01:07;32.90;8.00
74420;DHT22;62855;50.718;-2.460;2024-02-28T10:04:06;32.90;8.00
74420;DHT22;62855;50.718;-2.460;2024-02-28T10:07:11;33.08;8.00
74420;DHT22;62855;50.718;-2.460;2024-02-28T10:10:06;33.08;8.00
74420;DHT22;62855;50.718;-2.460;2024-02-28T10:13:06;33.08;8.00
74420;DHT22;62855;50.718;-2.460;2024-02-28T10:16:07;33.26;8.00
74420;DHT22;62855;50.718;-2.460;2024-02-28T10:19:06;33.26;7.00
74420;DHT22;62855;50.718;-2.460;2024-02-28T10:22:07;33.44;7.00
74420;DHT22;62855;50.718;-2.460;2024-02-28T10:25:06;33.44;7.00
74420;DHT22;62855;50.718;-2.460;2024-02-28T10:28:06;33.44;7.00
74420;DHT22;62855;50.718;-2.460;2024-02-28T10:31:05;33.44;7.00
74420;DHT22;62855;50.718;-2.460;2024-02-28T10:34:08;33.44;7.00
74420;DHT22;62855;50.718;-2.460;2024-02-28T10:37:06;33.44;7.00
74420;DHT22;62855;50.718;-2.460;2024-02-28T10:40:07;33.44;7.00
74420;DHT22;62855;50.718;-2.460;2024-02-28T10:43:12;33.26;7.00
74420;DHT22;62855;50.718;-2.460;2024-02-28T10:46:06;33.26;7.00
74420;DHT22;62855;50.718;-2.460;2024-02-28T10:49:05;33.26;6.00
74420;DHT22;62855;50.718;-2.460;2024-02-28T10:52:08;33.26;6.00
74420;DHT22;62855;50.718;-2.460;2024-02-28T10:55:08;33.26;6.00
74420;DHT22;62855;50.718;-2.460;2024-02-28T10:58:08;33.26;6.00
74420;DHT22;62855;50.718;-2.460;2024-02-28T11:01:06;33.26;6.00
74420;DHT22;62855;50.718;-2.460;2024-02-28T11:04:06;33.26;6.00
74420;DHT22;62855;50.718;-2.460;2024-02-28T11:07:05;33.26;6.00
74420;DHT22;62855;50.718;-2.460;2024-02-28T11:10:08;33.26;6.00
74420;DHT22;62855;50.718;-2.460;2024-02-28T11:13:06;33.26;6.00
74420;DHT22;62855;50.718;-2.460;2024-02-28T11:16:09;33.26;6.00
74420;DHT22;62855;50.718;-2.460;2024-02-28T11:19:05;33.26;5.00
74420;DHT22;62855;50.718;-2.460;2024-02-28T11:22:06;33.44;5.00
74420;DHT22;62855;50.718;-2.460;2024-02-28T11:25:06;33.44;5.00
74420;DHT22;62855;50.718;-2.460;2024-02-28T11:28:06;33.44;5.00
74420;DHT22;62855;50.718;-2.460;2024-02-28T11:31:08;33.62;5.00
74420;DHT22;62855;50.718;-2.460;2024-02-28T11:34:06;33.62;5.00
74420;DHT22;62855;50.718;-2.460;2024-02-28T11:37:05;33.62;5.00
74420;DHT22;62855;50.718;-2.460;2024-02-28T11:40:07;32.00;5.00
74420;DHT22;62855;50.718;-2.460;2024-02-28T11:43:06;32.00;5.00
74420;DHT22;62855;50.718;-2.460;2024-02-28T11:46:08;32.00;5.00
74420;DHT22;62855;50.718;-2.460;2024-02-28T11:49:06;32.00;5.00
74420;DHT22;62855;50.718;-2.460;2024-02-28T11:52:06;33.62;5.00
74420;DHT22;62855;50.718;-2.460;2024-02-28T11:55:06;33.62;5.00
74420;DHT22;62855;50.718;-2.460;2024-02-28T11:58:08;33.62;5.00
74420;DHT22;62855;50.718;-2.460;2024-02-28T12:01:05;33.62;5.00
74420;DHT22;62855;50.718;-2.460;2024-02-28T12:04:06;33.62;5.00
74420;DHT22;62855;50.718;-2.460;2024-02-28T12:07:05;33.62;5.00
74420;DHT22;62855;50.718;-2.460;2024-02-28T12:10:08;33.62;5.00
74420;DHT22;62855;50.718;-2.460;2024-02-28T12:13:05;33.62;5.00
74420;DHT22;62855;50.718;-2.460;2024-02-28T12:16:05;32.00;5.00
74420;DHT22;62855;50.718;-2.460;2024-02-28T12:19:07;32.00;6.00
74420;DHT22;62855;50.718;-2.460;2024-02-28T12:23:06;32.00;6.00
74420;DHT22;62855;50.718;-2.460;2024-02-28T12:26:05;32.00;6.00
74420;DHT22;62855;50.718;-2.460;2024-02-28T12:29:07;32.18;6.00
74420;DHT22;62855;50.718;-2.460;2024-02-28T12:32:07;32.18;6.00
74420;DHT22;62855;50.718;-2.460;2024-02-28T12:35:08;32.18;6.00
74420;DHT22;62855;50.718;-2.460;2024-02-28T12:38:06;32.36;6.00
74420;DHT22;62855;50.718;-2.460;2024-02-28T12:41:06;32.54;6.00
74420;DHT22;62855;50.718;-2.460;2024-02-28T12:44:06;32.54;6.00
74420;DHT22;62855;50.718;-2.460;2024-02-28T12:47:06;32.72;6.00
74420;DHT22;62855;50.718;-2.460;2024-02-28T12:50:06;32.72;7.00
74420;DHT22;62855;50.718;-2.460;2024-02-28T12:53:05;32.90;7.00
74420;DHT22;62855;50.718;-2.460;2024-02-28T12:56:06;32.90;7.00
74420;DHT22;62855;50.718;-2.460;2024-02-28T12:59:06;33.08;7.00
74420;DHT22;62855;50.718;-2.460;2024-02-28T13:02:06;33.08;7.00
74420;DHT22;62855;50.718;-2.460;2024-02-28T13:05:07;33.26;7.00
74420;DHT22;62855;50.718;-2.460;2024-02-28T13:08:06;33.44;7.00
74420;DHT22;62855;50.718;-2.460;2024-02-28T13:11:06;33.44;7.00
74420;DHT22;62855;50.718;-2.460;2024-02-28T13:14:06;33.62;8.00
74420;DHT22;62855;50.718;-2.460;2024-02-28T13:20:07;33.62;8.00
74420;DHT22;62855;50.718;-2.460;2024-02-28T13:23:06;32.00;8.00
74420;DHT22;62855;50.718;-2.460;2024-02-28T13:26:06;32.18;8.00
74420;DHT22;62855;50.718;-2.460;2024-02-28T13:29:05;32.18;8.00
74420;DHT22;62855;50.718;-2.460;2024-02-28T13:32:07;32.36;8.00
74420;DHT22;62855;50.718;-2.460;2024-02-28T13:35:06;32.36;8.00
74420;DHT22;62855;50.718;-2.460;2024-02-28T13:38:06;32.36;8.00
74420;DHT22;62855;50.718;-2.460;2024-02-28T13:41:06;32.36;8.00
74420;DHT22;62855;50.718;-2.460;2024-02-28T13:44:05;32.54;8.00
74420;DHT22;62855;50.718;-2.460;2024-02-28T13:47:06;32.54;9.00
74420;DHT22;62855;50.718;-2.460;2024-02-28T13:50:11;32.54;9.00
74420;DHT22;62855;50.718;-2.460;2024-02-28T13:53:06;32.54;9.00
74420;DHT22;62855;50.718;-2.460;2024-02-28T13:56:06;32.54;9.00
74420;DHT22;62855;50.718;-2.460;2024-02-28T13:59:07;32.54;9.00
74420;DHT22;62855;50.718;-2.460;2024-02-28T14:02:07;32.54;9.00
74420;DHT22;62855;50.718;-2.460;2024-02-28T14:05:06;32.54;9.00
74420;DHT22;62855;50.718;-2.460;2024-02-28T14:08:06;32.54;9.00
74420;DHT22;62855;50.718;-2.460;2024-02-28T14:11:06;32.54;9.00
74420;DHT22;62855;50.718;-2.460;2024-02-28T14:14:07;32.54;9.00
74420;DHT22;62855;50.718;-2.460;2024-02-28T14:17:33;32.54;9.00
74420;DHT22;62855;50.718;-2.460;2024-02-28T14:20:06;32.54;9.00
74420;DHT22;62855;50.718;-2.460;2024-02-28T14:23:05;32.36;9.00
74420;DHT22;62855;50.718;-2.460;2024-02-28T14:26:06;32.36;9.00
74420;DHT22;62855;50.718;-2.460;2024-02-28T14:29:05;32.36;9.00
74420;DHT22;62855;50.718;-2.460;2024-02-28T14:32:06;32.36;9.00
74420;DHT22;62855;50.718;-2.460;2024-02-28T14:35:07;32.36;9.00
74420;DHT22;62855;50.718;-2.460;2024-02-28T14:38:06;32.36;9.00
74420;DHT22;62855;50.718;-2.460;2024-02-28T14:41:06;32.36;9.00
74420;DHT22;62855;50.718;-2.460;2024-02-28T14:44:06;32.36;9.00
74420;DHT22;62855;50.718;-2.460;2024-02-28T14:47:05;32.36;9.00
74420;DHT22;62855;50.718;-2.460;2024-02-28T14:50:07;32.36;9.00
74420;DHT22;62855;50.718;-2.460;2024-02-28T14:53:06;32.36;9.00
74420;DHT22;62855;50.718;-2.460;2024-02-28T14:56:06;32.36;9.00
74420;DHT22;62855;50.718;-2.460;2024-02-28T14:59:05;32.36;9.00
74420;DHT22;62855;50.718;-2.460;2024-02-28T15:02:06;32.36;9.00
74420;DHT22;62855;50.718;-2.460;2024-02-28T15:05:07;32.36;9.00
74420;DHT22;62855;50.718;-2.460;2024-02-28T15:08:06;32.36;9.00
74420;DHT22;62855;50.718;-2.460;2024-02-28T15:11:11;32.36;0.00
74420;DHT22;62855;50.718;-2.460;2024-02-28T15:14:05;32.36;0.00
74420;DHT22;62855;50.718;-2.460;2024-02-28T15:17:06;32.36;0.00
74420;DHT22;62855;50.718;-2.460;2024-02-28T15:20:07;32.36;0.00
74420;DHT22;62855;50.718;-2.460;2024-02-28T15:23:07;32.36;0.00
74420;DHT22;62855;50.718;-2.460;2024-02-28T15:26:06;32.36;0.00
74420;DHT22;62855;50.718;-2.460;2024-02-28T15:29:06;32.36;0.00
74420;DHT22;62855;50.718;-2.460;2024-02-28T15:32:06;32.36;0.00
74420;DHT22;62855;50.718;-2.460;2024-02-28T15:35:07;32.36;0.00
74420;DHT22;62855;50.718;-2.460;2024-02-28T15:38:05;32.36;0.00
74420;DHT22;62855;50.718;-2.460;2024-02-28T15:41:06;32.36;0.00
74420;DHT22;62855;50.718;-2.460;2024-02-28T15:44:06;32.36;0.00
74420;DHT22;62855;50.718;-2.460;2024-02-28T15:47:07;32.36;0.00
74420;DHT22;62855;50.718;-2.460;2024-02-28T15:50:07;32.36;0.00
74420;DHT22;62855;50.718;-2.460;2024-02-28T15:53:06;32.36;0.00
74420;DHT22;62855;50.718;-2.460;2024-02-28T15:56:06;32.36;0.00
74420;DHT22;62855;50.718;-2.460;2024-02-28T15:59:06;32.36;0.00
74420;DHT22;62855;50.718;-2.460;2024-02-28T16:02:06;32.36;0.00
74420;DHT22;62855;50.718;-2.460;2024-02-28T16:05:07;32.36;0.00
74420;DHT22;62855;50.718;-2.460;2024-02-28T16:08:06;32.36;0.00
74420;DHT22;62855;50.718;-2.460;2024-02-28T16:11:05;32.36;0.00
74420;DHT22;62855;50.718;-2.460;2024-02-28T16:14:05;32.36;0.00
74420;DHT22;62855;50.718;-2.460;2024-02-28T16:17:06;32.36;0.00
74420;DHT22;62855;50.718;-2.460;2024-02-28T16:20:06;32.36;0.00
74420;DHT22;62855;50.718;-2.460;2024-02-28T16:23:06;32.36;0.00
74420;DHT22;62855;50.718;-2.460;2024-02-28T16:26:06;32.36;0.00
74420;DHT22;62855;50.718;-2.460;2024-02-28T16:29:05;32.18;0.00
74420;DHT22;62855;50.718;-2.460;2024-02-28T16:32:06;32.18;0.00
74420;DHT22;62855;50.718;-2.460;2024-02-28T16:35:08;32.18;0.00
74420;DHT22;62855;50.718;-2.460;2024-02-28T16:38:06;32.18;0.00
74420;DHT22;62855;50.718;-2.460;2024-02-28T16:41:05;32.18;0.00
74420;DHT22;62855;50.718;-2.460;2024-02-28T16:44:06;32.18;0.00
74420;DHT22;62855;50.718;-2.460;2024-02-28T16:47:06;32.18;0.00
74420;DHT22;62855;50.718;-2.460;2024-02-28T16:50:06;32.18;0.00
74420;DHT22;62855;50.718;-2.460;2024-02-28T16:53:05;32.00;0.00
74420;DHT22;62855;50.718;-2.460;2024-02-28T16:56:06;32.00;0.00
74420;DHT22;62855;50.718;-2.460;2024-02-28T16:59:07;32.00;0.00
74420;DHT22;62855;50.718;-2.460;2024-02-28T17:02:06;32.00;0.00
74420;DHT22;62855;50.718;-2.460;2024-02-28T17:05:07;32.00;0.00
74420;DHT22;62855;50.718;-2.460;2024-02-28T17:08:06;32.00;0.00
74420;DHT22;62855;50.718;-2.460;2024-02-28T17:11:06;32.00;0.00
74420;DHT22;62855;50.718;-2.460;2024-02-28T17:14:06;32.00;0.00
74420;DHT22;62855;50.718;-2.460;2024-02-28T17:17:05;32.00;0.00
74420;DHT22;62855;50.718;-2.460;2024-02-28T17:20:06;32.00;0.00
74420;DHT22;62855;50.718;-2.460;2024-02-28T17:23:07;32.00;0.00
74420;DHT22;62855;50.718;-2.460;2024-02-28T17:26:05;32.00;0.00
74420;DHT22;62855;50.718;-2.460;2024-02-28T17:29:06;32.00;0.00
74420;DHT22;62855;50.718;-2.460;2024-02-28T17:32:06;32.00;0.00
74420;DHT22;62855;50.718;-2.460;2024-02-28T17:35:07;32.00;0.00
74420;DHT22;62855;50.718;-2.460;2024-02-28T17:38:06;32.00;0.00
74420;DHT22;62855;50.718;-2.460;2024-02-28T17:41:06;32.00;0.00
74420;DHT22;62855;50.718;-2.460;2024-02-28T17:44:06;32.00;0.00
74420;DHT22;62855;50.718;-2.460;2024-02-28T17:47:06;32.00;0.00
74420;DHT22;62855;50.718;-2.460;2024-02-28T17:50:06;32.00;0.00
74420;DHT22;62855;50.718;-2.460;2024-02-28T17:53:05;32.00;0.00
74420;DHT22;62855;50.718;-2.460;2024-02-28T17:56:07;32.00;0.00
74420;DHT22;62855;50.718;-2.460;2024-02-28T17:59:06;32.00;0.00
74420;DHT22;62855;50.718;-2.460;2024-02-28T18:02:06;32.00;0.00
74420;DHT22;62855;50.718;-2.460;2024-02-28T18:05:06;32.00;0.00
74420;DHT22;62855;50.718;-2.460;2024-02-28T18:08:05;32.00;0.00
74420;DHT22;62855;50.718;-2.460;2024-02-28T18:11:07;32.00;0.00
74420;DHT22;62855;50.718;-2.460;2024-02-28T18:14:06;32.00;0.00
74420;DHT22;62855;50.718;-2.460;2024-02-28T18:17:06;32.00;0.00
74420;DHT22;62855;50.718;-2.460;2024-02-28T18:20:07;32.00;0.00
74420;DHT22;62855;50.718;-2.460;2024-02-28T18:23:07;32.00;0.00
74420;DHT22;62855;50.718;-2.460;2024-02-28T18:26:05;32.00;0.00
74420;DHT22;62855;50.718;-2.460;2024-02-28T18:29:05;32.00;0.00
74420;DHT22;62855;50.718;-2.460;2024-02-28T18:32:06;32.00;0.00
74420;DHT22;62855;50.718;-2.460;2024-02-28T18:35:07;32.00;0.00
74420;DHT22;62855;50.718;-2.460;2024-02-28T18:38:05;32.00;0.00
74420;DHT22;62855;50.718;-2.460;2024-02-28T18:41:05;32.00;0.00
74420;DHT22;62855;50.718;-2.460;2024-02-28T18:44:13;33.62;0.00
74420;DHT22;62855;50.718;-2.460;2024-02-28T18:47:06;33.62;0.00
74420;DHT22;62855;50.718;-2.460;2024-02-28T18:50:06;33.62;0.00
74420;DHT22;62855;50.718;-2.460;2024-02-28T18:53:05;33.62;0.00
74420;DHT22;62855;50.718;-2.460;2024-02-28T18:56:06;33.62;0.00
74420;DHT22;62855;50.718;-2.460;2024-02-28T18:59:06;33.62;0.00
74420;DHT22;62855;50.718;-2.460;2024-02-28T19:02:05;33.62;0.00
74420;DHT22;62855;50.718;-2.460;2024-02-28T19:05:06;33.62;0.00